Карточка аэропорта UNWW

Внимание!
Информация на этой странице в стадии наполнения.
Если вы не увидели какой-то информации, или заметили неточность - пожалуйста сообщите нам!
Спасибо!
Команда RU-STAFF
Название аэропортаСпиченково
Название аэропорта (англ.)Spichenkovo
Превышение1023 ft. (311.8 m.)
Координаты53°48.714', 86°52.704'
Высота перехода800m
Эшелон переходаFL050
Коды ответчика5270-5277
Зона ОрВДНовосибирск РПИ (UNNT)
Данные METARUNWW 280930Z 29005MPS 9999 -SHRA BKN013 OVC023CB 05/03 Q1010 R01/290150 NOSIG RMK QFE731
Проноз погоды (TAF)UNWW 280800Z 2809/2909 30007G15MPS 8000 -SHRA BKN011CB TX07/2809Z TN02/2821Z TEMPO 2809/2812 26003G08MPS BECMG 2812/2815 20003G08MPS BKN020CB BECMG 2818/2821 19007G15MPS TEMPO 2903/2909 22011G20MPS
NOTAMshow/hide NOTAM
AWOS   TABLE

Информация о ВПП

ВПП Длина ВПП (м.) Покрытие Курс ВПП Частота ILS
012679Цементобетон14 
192679Цементобетон194111.1

Диспетчерские позиции

Позывной Наименование органа УВД Частота
UNWW_APPНовокузнецк-Подход118.6
UNWW_TWRНовокузнецк-Старт121.2



Спутниковое изображение